Smithville, MS

2:22 PM CDT on July 29, 2014 (GMT -0500)
Aberdeen / Amory (KM40) Elev 223 ft | 33.87 °N, 88.49 °W | Change Station

Current weather conditions updated -763 second ago

Partly Cloudy
Partly Cloudy
82 °F
Feels Like 85 °F
N
10
Wind Variable Wind from North

Today is forecast to be Much Cooler than yesterday.

Today
High -- | Low -- °F
--% Chance of Precip.
Yesterday
High -- | Low -- °F
Precip. -- in
6:02 AM 7:56 PM
Waxing Crescent, 7% visible
Pressure 30.09 in
Visibility 9.0 miles
Clouds Few 5000 ft
Heat Index 85 °F
Dew Point 66 °F
Humidity 58%
Rainfall 0.00 in
Snow Depth Not available.
UV 10 out of 12
Pollen 5.10 out of 12
Air Quality Not available.
Flu Activity Not available.
METAR KM40 291935Z AUTO 35009KT 9SM FEW050 28/19 A3009 RMK AO2

More Conditions Fewer Conditions

Pressure 30.09 in
Visibility 9.0 miles
Clouds Few 5000 ft
Heat Index 85 °F
Dew Point 66 °F
Humidity 58%
Rainfall 0.00 in
Snow Depth Not available.
UV 10 out of 12
Pollen 5.10 out of 12
Air Quality Not available.
Flu Activity Not available.
METAR KM40 291935Z AUTO 35009KT 9SM FEW050 28/19 A3009 RMK AO2

More Conditions Fewer Conditions

10-Day Weather Forecast

Almanac

Astronomy

Jul. 29, 2014 Rise Set
Actual Time 6:02 AM CDT 7:56 PM CDT
Civil Twilight 5:35 AM CDT 8:24 PM CDT
Nautical Twilight 5:01 AM CDT 8:57 PM CDT
Astronomical Twilight 4:25 AM CDT 9:33 PM CDT
Moon 8:29 AM CDT 9:19 PM CDT
Length of Visible Light 14h 49m
Length of Day
13h 54m
Tomorrow will be 1m 30s shorter.
Waxing Crescent, 7% of the Moon is Illuminated
Today
Waxing Crescent
Aug 3
First Quarter
Aug 10
Full
Aug 17
Last Quarter
Aug 25
New

Today's Extremes

State Highs State Lows

Community

WunderPhotos

Upload Photos

1,738,833 photos uploaded!

WunderBlogs® & News

Nearby

Snow Depth

Station Depth Elevation
No new snow has been reported.

Earthquake Activity

City Distance Mag. Time & Date
No recent earthquake activity has been reported nearby.
Minimum magnitude displayed is 2.5.

Coastal Water Temperatures

Place Temperature
No Stations Reporting

Nearby Weather Stations

Station Location Temp. Heat Index Dew Point Humidity Wind Precip. Elev Updated Type
Vernon Alabama, Sulligent, AL 83.7 °F 85 °F 64 °F 52% NW  at  3.0 mph 0.00 in / hr 372 ft 2:22 PM CDT Normal
Lee Acres, Tupelo, MS 77.7 °F 79 °F 59 °F 52% NNW  at  5.0 mph 0.00 in / hr 340 ft 2:21 PM CDT Rapid Fire

Show More Stations Show Fewer Stations